AirNav   Jet Aviation Boston
 
 882 users online  

3F7 Jones Memorial Airport
Bristow, Oklahoma, USA

GOING TO BRISTOW?


FAA INFORMATION EFFECTIVE 21 JUNE 2018

Location

FAA Identifier: 3F7
Lat/Long: 35-48-25.2600N / 096-25-19.0200W
35-48.421000N / 096-25.317000W
35.8070167 / -96.4219500
(estimated)
Elevation: 851.9 ft. / 260 m (estimated)
Variation: 05E (2000)
From city: 3 miles SW of BRISTOW, OK
Time zone: UTC -5 (UTC -6 during Standard Time)
Zip code: 74010

Airport Operations

Airport use: Open to the public
Activation date: 01/1966
Control tower: no
ARTCC: KANSAS CITY CENTER
FSS: MC ALESTER FLIGHT SERVICE STATION
NOTAMs facility: MLC (NOTAM-D service available)
Attendance: UNATNDD
Wind indicator: yes
Segmented circle: no
Lights: ACTVT MIRL RY 18/36 - CTAF.
Beacon: white-green (lighted land airport)
Operates sunset to sunrise.

Airport Communications

CTAF: 122.9
WX AWOS-3 at CUH (19 nm NW): 118.25 ((918) 225-6072)
  • APCH/DEP SVC PRVDD BY KANSAS CITY ARTCC ON FREQS 127.8/319.1(PONCA CITY RCAG).

Nearby radio navigation aids

VOR radial/distance  VOR name  Freq  Var
GNPr247/23.1GLENPOOL VOR/DME110.6006E
OKMr276/27.9OKMULGEE VOR/DME114.9008E
TULr225/38.6TULSA VORTAC114.4008E

 
NDB name  Hdg/Dist  Freq  Var  ID
CUSHING101/17.824205ECUH -.-. ..- ....
WILLIAM POGUE205/25.536206EOWP --- .-- .--.
HENRYETTA317/31.326704EHET .... . -
SEMINOLE015/34.427806ESRE ... .-. .

Airport Services

Fuel available: 100LL
24 HR. AUTOMATED FUEL SERVICE SYSTEM.
Parking: tiedowns
Bottled oxygen: NONE
Bulk oxygen: NONE

Runway Information

Runway 18/36

Dimensions: 3379 x 50 ft. / 1030 x 15 m
Surface: asphalt, in fair condition
Weight bearing capacity: 
Single wheel: 4.0
Runway edge lights: medium intensity
RUNWAY 18  RUNWAY 36
Latitude: 35-48.699500N35-48.142500N
Longitude: 096-25.316000W096-25.318000W
Elevation: 805.3 ft.851.8 ft.
Gradient: 1.3%1.3%
Traffic pattern: leftleft
Runway heading: 176 magnetic, 181 true356 magnetic, 001 true
Markings: nonprecision, in good conditionnonprecision, in good condition
Touchdown point: yes, no lightsyes, no lights
Obstructions: 28 ft. trees, 768 ft. from runway, 175 ft. left of centerline, 20:1 slope to clear57 ft. pline, marked, 1170 ft. from runway, 17:1 slope to clear

Airport Ownership and Management from official FAA records

Ownership: Publicly-owned
Owner: CITY OF BRISTOW
110 W 7TH ST
BRISTOW, OK 74010
Phone 918-367-6244
Manager: LEONARD WASHINGTON
110 W 7TH ST
BRISTOW, OK 74010
Phone (918) 367-6244
MAYOR.

Airport Operational Statistics

Aircraft based on the field: 17
Single engine airplanes: 12
Multi engine airplanes: 3
Helicopters: 2
    
Aircraft operations: avg 38/week *
75% transient general aviation
25% local general aviation
* for 12-month period ending 06 April 2016

Instrument Procedures

NOTE: All procedures below are presented as PDF files. If you need a reader for these files, you should download the free Adobe Reader.

NOT FOR NAVIGATION. Please procure official charts for flight.
FAA instrument procedures published for use from 21 June 2018 at 0901Z to 19 July 2018 at 0900Z.

 
IAPs - Instrument Approach Procedures
RNAV (GPS) RWY 18   download (176KB)
RNAV (GPS) RWY 36   download (166KB)
NOTE: Special Take-Off Minimums/Departure Procedures apply   download (131KB)

Other nearby airports with instrument procedures:

KCUH - Cushing Municipal Airport (19 nm NW)
KCQB - Chandler Regional Airport (20 nm W)
O47 - Prague Municipal Airport (24 nm SW)
KOKM - Okmulgee Regional Airport (25 nm E)
KRVS - Richard Lloyd Jones Jr Airport (25 nm NE)
 
Loc | Ops | Rwys | IFR | FBO | Links
Com | Nav | Svcs | Stats | Notes


 
Area around 3F7 (Jones Memorial Airport)
 
Road maps at: MapQuest Bing Google
 
Aerial photo
WARNING: Photo may not be current or correct
Aerial photo of 3F7 (Jones Memorial Airport)
Photo taken 23-Jul-2007

Do you have a better or more recent aerial photo of Jones Memorial Airport that you would like to share? If so, please send us your photo.

 
Sectional chart

 
Airport distance calculator
Flying to Jones Memorial Airport? Find the distance to fly.

From to 3F7

Sunrise and sunset
Times for 17-Jul-2018
 Local
(UTC-5)
 Zulu
(UTC)
Morning civil twilight05:5410:54
Sunrise06:2311:23
Sunset20:4001:40
Evening civil twilight21:1002:10

Current date and time
Zulu (UTC)  17-Jul-2018 11:59:59
Local (UTC-5)  17-Jul-2018 06:59:59
 
METAR
KCUH 
19nm NW 
171135Z AUTO 07004KT 10SM SCT085 25/23 A3001 RMK AO2 T02500229
KCQB 
20nm W 
171135Z AUTO 18007KT 10SM SCT085 25/20 A3000 RMK AO2 LTG DSNT S AND SW T02470198
KOKM 
24nm E 
171135Z AUTO 00000KT 10SM SCT080 24/24 A3002 RMK AO2 T02400240
KOWP 
26nm NE 
171135Z AUTO 15004KT 10SM SCT075 BKN100 BKN120 26/23 A3002 RMK AO2 LTG DSNT SW T02600231
KRVS 
26nm NE 
171153Z 00000KT 10SM FEW080 25/23 A3001 RMK AO2 SLP165 70025 T02500233 10261 20244 53009
KSRE 
34nm S 
171135Z AUTO 00000KT 10SM OVC080 26/20 A3001 RMK AO2 LTG DSNT SE
KTUL 
35nm NE 
171153Z 17008KT 10SM SCT100 BKN250 27/23 A3000 RMK AO2 SLP149 ACC ALQDS CB DSNT W T02670233 10278 20250 53008
KSNL 
38nm SW 
171135Z AUTO 08004KT 10SM SCT085 SCT110 26/19 A3002 RMK AO2 LTG DSNT N AND NE T02600194
TAF
KRVS 
26nm NE 
170520Z 1706/1806 00000KT 5SM BR FEW250 TEMPO 1708/1712 2SM BR FM171800 10005KT P6SM BKN250 PROB30 1718/1724 2SM +TSRA BKN050CB FM180000 05002KT P6SM OVC250 PROB30 1800/1806 2SM +TSRA BKN050CB
NOTAMs
Click for the latest NOTAMs
NOTAMs are issued by the DoD/FAA and will open in a separate window not controlled by AirNav.

 

 
 

FBO, Fuel Providers, and Aircraft Ground Support

  
 Business Name 
 
 Contact 
 
 Services / Description 
 
Fuel Prices
 
Comments
  
City of Bristow (FBO) 918-340-0000
no information available

If you are affiliated with City of Bristow (FBO) and would like to show here your services, contact info, web link, logo, and more, click here
100LL
SS $3.89 
 Updated 13-Jun-2018
 
   2 read write
SS=Self service
Update Fuel Prices
 

Would you like to see your business listed on this page?

 If your business provides an interesting product or service to pilots, flight crews, aircraft, or users of the Jones Memorial Airport, you should consider listing it here.  To start the listing process, click on the button below
 
Add a business
 

Other Pages about Jones Memorial Airport

Update a link
 
Copyright © AirNav, LLC. All rights reserved. Privacy Policy  Contact